ADDS METAR Data INFO
IDs: Format: Raw Decoded Include TAF

Data at: 1051 UTC 19 Oct 2017

METAR for:KLEE (Leesburg Muni, FL, US)
Text:KLEE 190953Z AUTO 01008KT 10SM FEW004 21/21 A3009 RMK AO2 SLP188 T02110206
Temperature: 21.1°C ( 70°F)
Dewpoint: 20.6°C ( 69°F) [RH = 97%]
Pressure (altimeter):30.09 inches Hg (1019.0 mb) [Sea level pressure: 1018.8 mb]
Winds:from the N (10 degrees) at 9 MPH (8 knots; 4.1 m/s)
Visibility:10 or more sm (16+ km)
Ceiling:at least 12,000 feet AGL
Clouds: few clouds at 400 feet AGL
QC Flag:automated observation with no human augmentation